sensor_id;sensor_type;location;lat;lon;timestamp;P1;durP1;ratioP1;P2;durP2;ratioP2
9698;SDS011;10089;47.876;8.346;2023-02-15T00:00:21;7.77;;;5.23;;
9698;SDS011;10089;47.876;8.346;2023-02-15T00:02:47;8.67;;;5.97;;
9698;SDS011;10089;47.876;8.346;2023-02-15T00:05:13;8.33;;;5.97;;
9698;SDS011;10089;47.876;8.346;2023-02-15T00:07:39;8.57;;;5.10;;
9698;SDS011;10089;47.876;8.346;2023-02-15T00:10:05;8.37;;;5.20;;
9698;SDS011;10089;47.876;8.346;2023-02-15T00:12:31;7.43;;;5.10;;
9698;SDS011;10089;47.876;8.346;2023-02-15T00:14:57;7.97;;;4.70;;
9698;SDS011;10089;47.876;8.346;2023-02-15T00:17:23;8.37;;;4.60;;
9698;SDS011;10089;47.876;8.346;2023-02-15T00:19:52;5.83;;;4.23;;
9698;SDS011;10089;47.876;8.346;2023-02-15T00:22:17;8.30;;;4.30;;
9698;SDS011;10089;47.876;8.346;2023-02-15T00:24:43;6.80;;;4.57;;
9698;SDS011;10089;47.876;8.346;2023-02-15T00:27:09;8.60;;;4.73;;
9698;SDS011;10089;47.876;8.346;2023-02-15T00:29:35;7.00;;;4.73;;
9698;SDS011;10089;47.876;8.346;2023-02-15T00:32:00;7.03;;;4.40;;
9698;SDS011;10089;47.876;8.346;2023-02-15T00:34:27;7.33;;;4.47;;
9698;SDS011;10089;47.876;8.346;2023-02-15T00:36:53;5.60;;;3.77;;
9698;SDS011;10089;47.876;8.346;2023-02-15T00:39:19;6.13;;;4.00;;
9698;SDS011;10089;47.876;8.346;2023-02-15T00:41:45;5.83;;;4.37;;
9698;SDS011;10089;47.876;8.346;2023-02-15T00:44:11;6.80;;;3.70;;
9698;SDS011;10089;47.876;8.346;2023-02-15T00:46:39;5.23;;;3.63;;
9698;SDS011;10089;47.876;8.346;2023-02-15T00:49:05;6.53;;;4.27;;
9698;SDS011;10089;47.876;8.346;2023-02-15T00:51:31;5.77;;;3.77;;
9698;SDS011;10089;47.876;8.346;2023-02-15T00:53:57;3.73;;;3.17;;
9698;SDS011;10089;47.876;8.346;2023-02-15T00:56:23;6.90;;;3.67;;
9698;SDS011;10089;47.876;8.346;2023-02-15T00:58:49;4.83;;;3.53;;
9698;SDS011;10089;47.876;8.346;2023-02-15T01:01:16;4.43;;;3.40;;
9698;SDS011;10089;47.876;8.346;2023-02-15T01:03:45;5.40;;;3.43;;
9698;SDS011;10089;47.876;8.346;2023-02-15T01:06:11;5.80;;;3.43;;
9698;SDS011;10089;47.876;8.346;2023-02-15T01:08:38;3.87;;;3.10;;
9698;SDS011;10089;47.876;8.346;2023-02-15T01:11:05;5.57;;;3.20;;
9698;SDS011;10089;47.876;8.346;2023-02-15T01:13:31;4.20;;;2.83;;
9698;SDS011;10089;47.876;8.346;2023-02-15T01:15:57;4.53;;;3.00;;
9698;SDS011;10089;47.876;8.346;2023-02-15T01:18:23;3.07;;;2.70;;
9698;SDS011;10089;47.876;8.346;2023-02-15T01:20:49;5.83;;;3.60;;
9698;SDS011;10089;47.876;8.346;2023-02-15T01:23:15;3.53;;;2.30;;
9698;SDS011;10089;47.876;8.346;2023-02-15T01:25:40;3.63;;;2.47;;
9698;SDS011;10089;47.876;8.346;2023-02-15T01:28:06;5.67;;;2.60;;
9698;SDS011;10089;47.876;8.346;2023-02-15T01:30:32;3.83;;;2.63;;
9698;SDS011;10089;47.876;8.346;2023-02-15T01:32:58;2.67;;;2.13;;
9698;SDS011;10089;47.876;8.346;2023-02-15T01:35:26;3.00;;;2.50;;
9698;SDS011;10089;47.876;8.346;2023-02-15T01:37:52;2.60;;;2.00;;
9698;SDS011;10089;47.876;8.346;2023-02-15T01:40:19;4.67;;;2.33;;
9698;SDS011;10089;47.876;8.346;2023-02-15T01:42:49;3.77;;;2.40;;
9698;SDS011;10089;47.876;8.346;2023-02-15T01:47:52;3.90;;;2.10;;
9698;SDS011;10089;47.876;8.346;2023-02-15T01:56:06;10.30;;;2.40;;
9698;SDS011;10089;47.876;8.346;2023-02-15T01:58:44;2.53;;;2.07;;
9698;SDS011;10089;47.876;8.346;2023-02-15T02:01:12;2.03;;;1.77;;
9698;SDS011;10089;47.876;8.346;2023-02-15T02:06:18;2.43;;;2.00;;
9698;SDS011;10089;47.876;8.346;2023-02-15T02:08:45;2.23;;;1.77;;
9698;SDS011;10089;47.876;8.346;2023-02-15T02:11:12;3.17;;;2.17;;
9698;SDS011;10089;47.876;8.346;2023-02-15T02:13:39;2.20;;;1.70;;
9698;SDS011;10089;47.876;8.346;2023-02-15T02:16:17;2.33;;;1.90;;
9698;SDS011;10089;47.876;8.346;2023-02-15T02:24:15;2.07;;;1.87;;
9698;SDS011;10089;47.876;8.346;2023-02-15T02:35:34;2.17;;;1.93;;
9698;SDS011;10089;47.876;8.346;2023-02-15T02:41:17;1.93;;;1.73;;
9698;SDS011;10089;47.876;8.346;2023-02-15T02:43:52;4.17;;;2.00;;
9698;SDS011;10089;47.876;8.346;2023-02-15T02:46:46;5.73;;;2.00;;
9698;SDS011;10089;47.876;8.346;2023-02-15T02:49:27;2.57;;;1.80;;
9698;SDS011;10089;47.876;8.346;2023-02-15T02:52:01;2.20;;;1.60;;
9698;SDS011;10089;47.876;8.346;2023-02-15T02:54:29;2.70;;;2.00;;
9698;SDS011;10089;47.876;8.346;2023-02-15T02:56:58;2.43;;;1.63;;
9698;SDS011;10089;47.876;8.346;2023-02-15T02:59:33;1.93;;;1.73;;
9698;SDS011;10089;47.876;8.346;2023-02-15T03:02:11;4.90;;;2.00;;
9698;SDS011;10089;47.876;8.346;2023-02-15T03:04:45;2.10;;;1.70;;
9698;SDS011;10089;47.876;8.346;2023-02-15T03:07:18;2.50;;;2.00;;
9698;SDS011;10089;47.876;8.346;2023-02-15T03:09:53;2.67;;;1.90;;
9698;SDS011;10089;47.876;8.346;2023-02-15T03:14:51;2.93;;;2.00;;
9698;SDS011;10089;47.876;8.346;2023-02-15T03:17:40;2.27;;;1.83;;
9698;SDS011;10089;47.876;8.346;2023-02-15T03:20:18;3.10;;;1.90;;
9698;SDS011;10089;47.876;8.346;2023-02-15T03:22:53;2.10;;;1.80;;
9698;SDS011;10089;47.876;8.346;2023-02-15T03:25:32;1.73;;;1.50;;
9698;SDS011;10089;47.876;8.346;2023-02-15T03:28:08;2.20;;;1.67;;
9698;SDS011;10089;47.876;8.346;2023-02-15T03:30:38;3.13;;;1.73;;
9698;SDS011;10089;47.876;8.346;2023-02-15T03:33:06;2.00;;;1.80;;
9698;SDS011;10089;47.876;8.346;2023-02-15T03:38:26;1.80;;;1.70;;
9698;SDS011;10089;47.876;8.346;2023-02-15T03:40:58;2.00;;;1.80;;
9698;SDS011;10089;47.876;8.346;2023-02-15T03:46:43;3.73;;;2.20;;
9698;SDS011;10089;47.876;8.346;2023-02-15T03:49:19;2.00;;;1.77;;
9698;SDS011;10089;47.876;8.346;2023-02-15T03:51:53;2.20;;;1.63;;
9698;SDS011;10089;47.876;8.346;2023-02-15T03:54:25;2.17;;;1.60;;
9698;SDS011;10089;47.876;8.346;2023-02-15T03:57:10;2.07;;;1.50;;
9698;SDS011;10089;47.876;8.346;2023-02-15T04:00:04;1.80;;;1.63;;
9698;SDS011;10089;47.876;8.346;2023-02-15T04:03:04;4.70;;;1.60;;
9698;SDS011;10089;47.876;8.346;2023-02-15T04:05:34;2.00;;;1.70;;
9698;SDS011;10089;47.876;8.346;2023-02-15T04:08:00;1.93;;;1.70;;
9698;SDS011;10089;47.876;8.346;2023-02-15T04:10:26;2.37;;;1.70;;
9698;SDS011;10089;47.876;8.346;2023-02-15T04:13:10;2.33;;;1.80;;
9698;SDS011;10089;47.876;8.346;2023-02-15T04:15:36;1.77;;;1.63;;
9698;SDS011;10089;47.876;8.346;2023-02-15T04:18:20;2.03;;;1.47;;
9698;SDS011;10089;47.876;8.346;2023-02-15T04:20:46;1.83;;;1.67;;
9698;SDS011;10089;47.876;8.346;2023-02-15T04:23:31;2.00;;;1.80;;
9698;SDS011;10089;47.876;8.346;2023-02-15T04:26:15;3.57;;;1.43;;
9698;SDS011;10089;47.876;8.346;2023-02-15T04:28:42;1.77;;;1.60;;
9698;SDS011;10089;47.876;8.346;2023-02-15T04:31:07;1.90;;;1.70;;
9698;SDS011;10089;47.876;8.346;2023-02-15T04:33:33;2.30;;;2.10;;
9698;SDS011;10089;47.876;8.346;2023-02-15T04:36:01;2.30;;;1.90;;
9698;SDS011;10089;47.876;8.346;2023-02-15T04:38:28;1.80;;;1.50;;
9698;SDS011;10089;47.876;8.346;2023-02-15T04:40:53;1.60;;;1.50;;
9698;SDS011;10089;47.876;8.346;2023-02-15T04:43:19;2.60;;;1.80;;
9698;SDS011;10089;47.876;8.346;2023-02-15T04:45:48;1.90;;;1.50;;
9698;SDS011;10089;47.876;8.346;2023-02-15T04:48:15;1.63;;;1.53;;
9698;SDS011;10089;47.876;8.346;2023-02-15T04:50:42;1.90;;;1.70;;
9698;SDS011;10089;47.876;8.346;2023-02-15T04:53:08;1.97;;;1.77;;
9698;SDS011;10089;47.876;8.346;2023-02-15T04:55:34;1.60;;;1.50;;
9698;SDS011;10089;47.876;8.346;2023-02-15T04:57:59;2.37;;;1.80;;
9698;SDS011;10089;47.876;8.346;2023-02-15T05:00:25;2.40;;;2.00;;
9698;SDS011;10089;47.876;8.346;2023-02-15T05:02:52;2.07;;;1.47;;
9698;SDS011;10089;47.876;8.346;2023-02-15T05:05:18;2.03;;;1.73;;
9698;SDS011;10089;47.876;8.346;2023-02-15T05:07:44;2.13;;;1.80;;
9698;SDS011;10089;47.876;8.346;2023-02-15T05:10:10;1.83;;;1.70;;
9698;SDS011;10089;47.876;8.346;2023-02-15T05:12:35;3.80;;;2.83;;
9698;SDS011;10089;47.876;8.346;2023-02-15T05:15:01;6.93;;;3.47;;
9698;SDS011;10089;47.876;8.346;2023-02-15T05:17:27;5.87;;;3.87;;
9698;SDS011;10089;47.876;8.346;2023-02-15T05:19:53;8.83;;;3.97;;
9698;SDS011;10089;47.876;8.346;2023-02-15T05:22:19;5.50;;;4.07;;
9698;SDS011;10089;47.876;8.346;2023-02-15T05:24:44;6.53;;;3.77;;
9698;SDS011;10089;47.876;8.346;2023-02-15T05:27:28;5.90;;;4.03;;
9698;SDS011;10089;47.876;8.346;2023-02-15T05:30:17;5.57;;;3.20;;
9698;SDS011;10089;47.876;8.346;2023-02-15T05:32:43;3.73;;;2.87;;
9698;SDS011;10089;47.876;8.346;2023-02-15T05:35:12;3.90;;;2.93;;
9698;SDS011;10089;47.876;8.346;2023-02-15T05:37:39;2.40;;;2.20;;
9698;SDS011;10089;47.876;8.346;2023-02-15T05:40:05;2.57;;;2.30;;
9698;SDS011;10089;47.876;8.346;2023-02-15T05:42:31;2.37;;;1.83;;
9698;SDS011;10089;47.876;8.346;2023-02-15T05:44:57;2.30;;;2.00;;
9698;SDS011;10089;47.876;8.346;2023-02-15T05:47:23;1.97;;;1.73;;
9698;SDS011;10089;47.876;8.346;2023-02-15T05:49:49;3.13;;;2.00;;
9698;SDS011;10089;47.876;8.346;2023-02-15T05:52:14;2.37;;;1.90;;
9698;SDS011;10089;47.876;8.346;2023-02-15T05:54:40;3.00;;;2.07;;
9698;SDS011;10089;47.876;8.346;2023-02-15T05:57:06;2.20;;;1.90;;
9698;SDS011;10089;47.876;8.346;2023-02-15T05:59:32;2.97;;;1.90;;
9698;SDS011;10089;47.876;8.346;2023-02-15T06:01:57;2.73;;;1.70;;
9698;SDS011;10089;47.876;8.346;2023-02-15T06:04:23;1.90;;;1.53;;
9698;SDS011;10089;47.876;8.346;2023-02-15T06:06:49;1.80;;;1.50;;
9698;SDS011;10089;47.876;8.346;2023-02-15T06:09:15;1.60;;;1.50;;
9698;SDS011;10089;47.876;8.346;2023-02-15T06:11:43;1.90;;;1.60;;
9698;SDS011;10089;47.876;8.346;2023-02-15T06:14:10;1.80;;;1.50;;
9698;SDS011;10089;47.876;8.346;2023-02-15T06:16:36;2.10;;;1.90;;
9698;SDS011;10089;47.876;8.346;2023-02-15T06:19:03;3.60;;;2.77;;
9698;SDS011;10089;47.876;8.346;2023-02-15T06:21:30;3.07;;;2.60;;
9698;SDS011;10089;47.876;8.346;2023-02-15T06:23:56;5.30;;;2.47;;
9698;SDS011;10089;47.876;8.346;2023-02-15T06:26:21;4.27;;;2.57;;
9698;SDS011;10089;47.876;8.346;2023-02-15T06:28:47;2.50;;;2.30;;
9698;SDS011;10089;47.876;8.346;2023-02-15T06:31:13;3.00;;;2.40;;
9698;SDS011;10089;47.876;8.346;2023-02-15T06:33:39;2.90;;;2.33;;
9698;SDS011;10089;47.876;8.346;2023-02-15T06:36:04;2.33;;;2.00;;
9698;SDS011;10089;47.876;8.346;2023-02-15T06:38:30;1.93;;;1.73;;
9698;SDS011;10089;47.876;8.346;2023-02-15T06:40:56;2.57;;;2.23;;
9698;SDS011;10089;47.876;8.346;2023-02-15T06:43:22;2.37;;;2.17;;
9698;SDS011;10089;47.876;8.346;2023-02-15T06:45:47;2.77;;;2.47;;
9698;SDS011;10089;47.876;8.346;2023-02-15T06:48:13;2.80;;;2.40;;
9698;SDS011;10089;47.876;8.346;2023-02-15T06:50:39;2.47;;;2.13;;
9698;SDS011;10089;47.876;8.346;2023-02-15T06:53:05;2.33;;;2.13;;
9698;SDS011;10089;47.876;8.346;2023-02-15T06:55:30;3.20;;;1.63;;
9698;SDS011;10089;47.876;8.346;2023-02-15T06:57:56;1.57;;;1.47;;
9698;SDS011;10089;47.876;8.346;2023-02-15T07:00:30;2.70;;;2.23;;
9698;SDS011;10089;47.876;8.346;2023-02-15T07:02:57;2.13;;;1.90;;
9698;SDS011;10089;47.876;8.346;2023-02-15T07:05:27;3.37;;;2.00;;
9698;SDS011;10089;47.876;8.346;2023-02-15T07:07:59;2.73;;;2.30;;
9698;SDS011;10089;47.876;8.346;2023-02-15T07:10:25;4.53;;;2.30;;
9698;SDS011;10089;47.876;8.346;2023-02-15T07:12:52;3.17;;;2.70;;
9698;SDS011;10089;47.876;8.346;2023-02-15T07:15:18;4.23;;;3.37;;
9698;SDS011;10089;47.876;8.346;2023-02-15T07:17:48;4.37;;;3.33;;
9698;SDS011;10089;47.876;8.346;2023-02-15T07:20:15;5.87;;;4.73;;
9698;SDS011;10089;47.876;8.346;2023-02-15T07:22:45;5.07;;;4.17;;
9698;SDS011;10089;47.876;8.346;2023-02-15T07:25:11;4.00;;;2.97;;
9698;SDS011;10089;47.876;8.346;2023-02-15T07:27:37;3.07;;;2.70;;
9698;SDS011;10089;47.876;8.346;2023-02-15T07:30:04;5.33;;;3.80;;
9698;SDS011;10089;47.876;8.346;2023-02-15T07:32:32;7.13;;;3.70;;
9698;SDS011;10089;47.876;8.346;2023-02-15T07:34:58;6.77;;;4.20;;
9698;SDS011;10089;47.876;8.346;2023-02-15T07:37:25;6.07;;;3.17;;
9698;SDS011;10089;47.876;8.346;2023-02-15T07:39:51;5.17;;;3.57;;
9698;SDS011;10089;47.876;8.346;2023-02-15T07:42:17;7.53;;;4.53;;
9698;SDS011;10089;47.876;8.346;2023-02-15T07:44:44;3.93;;;2.90;;
9698;SDS011;10089;47.876;8.346;2023-02-15T07:47:10;6.00;;;3.07;;
9698;SDS011;10089;47.876;8.346;2023-02-15T07:49:37;4.40;;;2.63;;
9698;SDS011;10089;47.876;8.346;2023-02-15T07:52:03;4.77;;;3.10;;
9698;SDS011;10089;47.876;8.346;2023-02-15T07:54:29;4.87;;;2.73;;
9698;SDS011;10089;47.876;8.346;2023-02-15T07:56:55;3.37;;;2.80;;
9698;SDS011;10089;47.876;8.346;2023-02-15T07:59:20;4.00;;;2.73;;
9698;SDS011;10089;47.876;8.346;2023-02-15T08:01:46;4.67;;;3.17;;
9698;SDS011;10089;47.876;8.346;2023-02-15T08:04:12;12.43;;;7.27;;
9698;SDS011;10089;47.876;8.346;2023-02-15T08:06:38;9.47;;;5.50;;
9698;SDS011;10089;47.876;8.346;2023-02-15T08:09:05;6.80;;;4.17;;
9698;SDS011;10089;47.876;8.346;2023-02-15T08:11:33;5.77;;;4.10;;
9698;SDS011;10089;47.876;8.346;2023-02-15T08:16:36;11.70;;;5.10;;
9698;SDS011;10089;47.876;8.346;2023-02-15T08:19:13;7.10;;;4.00;;
9698;SDS011;10089;47.876;8.346;2023-02-15T08:21:54;13.40;;;8.43;;
9698;SDS011;10089;47.876;8.346;2023-02-15T08:24:22;10.17;;;6.93;;
9698;SDS011;10089;47.876;8.346;2023-02-15T08:26:49;12.90;;;7.87;;
9698;SDS011;10089;47.876;8.346;2023-02-15T08:29:17;8.50;;;4.10;;
9698;SDS011;10089;47.876;8.346;2023-02-15T08:31:44;5.27;;;3.90;;
9698;SDS011;10089;47.876;8.346;2023-02-15T08:34:12;4.17;;;2.60;;
9698;SDS011;10089;47.876;8.346;2023-02-15T08:36:40;3.70;;;2.70;;
9698;SDS011;10089;47.876;8.346;2023-02-15T08:39:06;2.35;;;2.10;;
9698;SDS011;10089;47.876;8.346;2023-02-15T08:41:35;2.88;;;2.50;;
9698;SDS011;10089;47.876;8.346;2023-02-15T08:44:04;6.03;;;4.30;;
9698;SDS011;10089;47.876;8.346;2023-02-15T08:46:35;4.40;;;3.38;;
9698;SDS011;10089;47.876;8.346;2023-02-15T08:49:02;4.47;;;2.80;;
9698;SDS011;10089;47.876;8.346;2023-02-15T08:51:30;10.70;;;6.47;;
9698;SDS011;10089;47.876;8.346;2023-02-15T08:53:58;14.50;;;6.85;;
9698;SDS011;10089;47.876;8.346;2023-02-15T08:56:26;10.55;;;6.40;;
9698;SDS011;10089;47.876;8.346;2023-02-15T08:58:53;7.00;;;4.07;;
9698;SDS011;10089;47.876;8.346;2023-02-15T09:01:22;7.07;;;4.47;;
9698;SDS011;10089;47.876;8.346;2023-02-15T09:03:50;5.95;;;4.10;;
9698;SDS011;10089;47.876;8.346;2023-02-15T09:06:20;6.07;;;3.63;;
9698;SDS011;10089;47.876;8.346;2023-02-15T09:08:47;3.72;;;2.70;;
9698;SDS011;10089;47.876;8.346;2023-02-15T09:11:16;7.03;;;3.50;;
9698;SDS011;10089;47.876;8.346;2023-02-15T09:13:48;5.70;;;3.60;;
9698;SDS011;10089;47.876;8.346;2023-02-15T09:16:15;3.47;;;2.60;;
9698;SDS011;10089;47.876;8.346;2023-02-15T09:18:43;4.25;;;2.55;;
9698;SDS011;10089;47.876;8.346;2023-02-15T09:21:13;6.30;;;2.33;;
9698;SDS011;10089;47.876;8.346;2023-02-15T09:23:44;3.10;;;2.15;;
9698;SDS011;10089;47.876;8.346;2023-02-15T09:26:16;2.53;;;2.10;;
9698;SDS011;10089;47.876;8.346;2023-02-15T09:28:44;2.83;;;1.90;;
9698;SDS011;10089;47.876;8.346;2023-02-15T09:31:11;2.70;;;2.00;;
9698;SDS011;10089;47.876;8.346;2023-02-15T09:33:40;3.75;;;2.08;;
9698;SDS011;10089;47.876;8.346;2023-02-15T09:38:44;6.07;;;2.40;;
9698;SDS011;10089;47.876;8.346;2023-02-15T09:41:32;5.57;;;1.95;;
9698;SDS011;10089;47.876;8.346;2023-02-15T09:55:51;2.55;;;2.15;;
9698;SDS011;10089;47.876;8.346;2023-02-15T10:14:59;8.43;;;3.65;;
9698;SDS011;10089;47.876;8.346;2023-02-15T10:25:43;37.30;;;24.40;;
9698;SDS011;10089;47.876;8.346;2023-02-15T10:28:32;9.48;;;5.30;;
9698;SDS011;10089;47.876;8.346;2023-02-15T10:31:15;21.27;;;13.68;;
9698;SDS011;10089;47.876;8.346;2023-02-15T10:36:52;15.52;;;9.82;;
9698;SDS011;10089;47.876;8.346;2023-02-15T10:39:55;15.98;;;10.18;;
9698;SDS011;10089;47.876;8.346;2023-02-15T11:04:46;21.80;;;13.57;;
9698;SDS011;10089;47.876;8.346;2023-02-15T11:07:43;16.35;;;11.63;;
9698;SDS011;10089;47.876;8.346;2023-02-15T11:12:54;18.00;;;11.55;;
9698;SDS011;10089;47.876;8.346;2023-02-15T11:17:58;23.75;;;13.82;;
9698;SDS011;10089;47.876;8.346;2023-02-15T11:20:57;20.35;;;14.35;;
9698;SDS011;10089;47.876;8.346;2023-02-15T11:23:26;18.58;;;12.30;;
9698;SDS011;10089;47.876;8.346;2023-02-15T11:25:57;16.63;;;11.07;;
9698;SDS011;10089;47.876;8.346;2023-02-15T11:31:11;12.68;;;9.65;;
9698;SDS011;10089;47.876;8.346;2023-02-15T11:33:44;18.52;;;12.85;;
9698;SDS011;10089;47.876;8.346;2023-02-15T11:36:21;13.77;;;9.88;;
9698;SDS011;10089;47.876;8.346;2023-02-15T11:38:52;16.58;;;11.73;;
9698;SDS011;10089;47.876;8.346;2023-02-15T11:41:27;16.13;;;11.45;;
9698;SDS011;10089;47.876;8.346;2023-02-15T11:46:38;17.15;;;11.88;;
9698;SDS011;10089;47.876;8.346;2023-02-15T11:49:10;18.15;;;11.90;;
9698;SDS011;10089;47.876;8.346;2023-02-15T11:51:53;13.93;;;9.00;;
9698;SDS011;10089;47.876;8.346;2023-02-15T11:54:21;14.80;;;9.95;;
9698;SDS011;10089;47.876;8.346;2023-02-15T11:56:52;17.20;;;11.07;;
9698;SDS011;10089;47.876;8.346;2023-02-15T11:59:32;18.67;;;12.23;;
9698;SDS011;10089;47.876;8.346;2023-02-15T12:02:02;16.45;;;12.18;;
9698;SDS011;10089;47.876;8.346;2023-02-15T12:04:40;20.23;;;13.65;;
9698;SDS011;10089;47.876;8.346;2023-02-15T12:13:13;16.15;;;12.00;;
9698;SDS011;10089;47.876;8.346;2023-02-15T12:15:45;15.35;;;11.15;;
9698;SDS011;10089;47.876;8.346;2023-02-15T12:18:33;14.57;;;11.93;;
9698;SDS011;10089;47.876;8.346;2023-02-15T12:21:05;13.55;;;9.73;;
9698;SDS011;10089;47.876;8.346;2023-02-15T12:23:34;13.45;;;10.70;;
9698;SDS011;10089;47.876;8.346;2023-02-15T12:26:07;15.82;;;11.07;;
9698;SDS011;10089;47.876;8.346;2023-02-15T12:28:34;13.00;;;9.02;;
9698;SDS011;10089;47.876;8.346;2023-02-15T12:31:07;14.40;;;8.93;;
9698;SDS011;10089;47.876;8.346;2023-02-15T12:33:46;12.32;;;8.60;;
9698;SDS011;10089;47.876;8.346;2023-02-15T12:36:15;12.40;;;8.90;;
9698;SDS011;10089;47.876;8.346;2023-02-15T12:41:40;12.88;;;9.98;;
9698;SDS011;10089;47.876;8.346;2023-02-15T12:44:18;11.68;;;8.02;;
9698;SDS011;10089;47.876;8.346;2023-02-15T12:46:59;10.30;;;6.35;;
9698;SDS011;10089;47.876;8.346;2023-02-15T12:49:28;8.68;;;6.55;;
9698;SDS011;10089;47.876;8.346;2023-02-15T12:51:56;10.23;;;7.93;;
9698;SDS011;10089;47.876;8.346;2023-02-15T12:57:26;11.45;;;7.65;;
9698;SDS011;10089;47.876;8.346;2023-02-15T13:00:05;11.90;;;8.27;;
9698;SDS011;10089;47.876;8.346;2023-02-15T13:02:52;9.75;;;7.28;;
9698;SDS011;10089;47.876;8.346;2023-02-15T13:07:56;12.43;;;6.97;;
9698;SDS011;10089;47.876;8.346;2023-02-15T13:10:33;10.07;;;6.05;;
9698;SDS011;10089;47.876;8.346;2023-02-15T13:13:02;19.92;;;12.30;;
9698;SDS011;10089;47.876;8.346;2023-02-15T13:15:36;8.48;;;6.07;;
9698;SDS011;10089;47.876;8.346;2023-02-15T13:18:05;59.00;;;36.42;;
9698;SDS011;10089;47.876;8.346;2023-02-15T13:20:37;8.85;;;5.38;;
9698;SDS011;10089;47.876;8.346;2023-02-15T13:23:06;14.50;;;9.93;;
9698;SDS011;10089;47.876;8.346;2023-02-15T13:25:44;28.63;;;22.13;;
9698;SDS011;10089;47.876;8.346;2023-02-15T13:28:15;14.10;;;10.20;;
9698;SDS011;10089;47.876;8.346;2023-02-15T13:30:44;27.08;;;19.85;;
9698;SDS011;10089;47.876;8.346;2023-02-15T13:41:25;6.38;;;5.00;;
9698;SDS011;10089;47.876;8.346;2023-02-15T13:44:12;7.85;;;5.15;;
9698;SDS011;10089;47.876;8.346;2023-02-15T13:46:50;7.70;;;4.97;;
9698;SDS011;10089;47.876;8.346;2023-02-15T13:52:22;7.05;;;5.13;;
9698;SDS011;10089;47.876;8.346;2023-02-15T13:57:43;7.32;;;5.93;;
9698;SDS011;10089;47.876;8.346;2023-02-15T14:00:26;8.55;;;5.25;;
9698;SDS011;10089;47.876;8.346;2023-02-15T14:08:31;11.32;;;5.65;;
9698;SDS011;10089;47.876;8.346;2023-02-15T14:11:12;7.97;;;5.40;;
9698;SDS011;10089;47.876;8.346;2023-02-15T14:14:05;7.63;;;5.72;;
9698;SDS011;10089;47.876;8.346;2023-02-15T14:19:54;10.13;;;7.22;;
9698;SDS011;10089;47.876;8.346;2023-02-15T14:22:47;34.47;;;22.55;;
9698;SDS011;10089;47.876;8.346;2023-02-15T14:25:48;22.30;;;16.05;;
9698;SDS011;10089;47.876;8.346;2023-02-15T14:30:48;7.30;;;5.50;;
9698;SDS011;10089;47.876;8.346;2023-02-15T14:33:28;7.25;;;4.97;;
9698;SDS011;10089;47.876;8.346;2023-02-15T14:36:01;16.08;;;9.75;;
9698;SDS011;10089;47.876;8.346;2023-02-15T14:44:29;8.80;;;5.93;;
9698;SDS011;10089;47.876;8.346;2023-02-15T14:47:11;19.60;;;5.55;;
9698;SDS011;10089;47.876;8.346;2023-02-15T14:49:45;11.15;;;5.53;;
9698;SDS011;10089;47.876;8.346;2023-02-15T14:52:11;7.50;;;5.63;;
9698;SDS011;10089;47.876;8.346;2023-02-15T15:04:33;7.97;;;5.68;;
9698;SDS011;10089;47.876;8.346;2023-02-15T15:07:21;10.18;;;5.28;;
9698;SDS011;10089;47.876;8.346;2023-02-15T15:15:13;14.60;;;9.70;;
9698;SDS011;10089;47.876;8.346;2023-02-15T15:18:07;10.85;;;6.75;;
9698;SDS011;10089;47.876;8.346;2023-02-15T15:31:04;9.35;;;7.22;;
9698;SDS011;10089;47.876;8.346;2023-02-15T15:36:20;8.02;;;6.20;;
9698;SDS011;10089;47.876;8.346;2023-02-15T15:48:17;11.45;;;7.55;;
9698;SDS011;10089;47.876;8.346;2023-02-15T15:50:17;13.30;;;9.57;;
9698;SDS011;10089;47.876;8.346;2023-02-15T15:52:47;13.07;;;9.77;;
9698;SDS011;10089;47.876;8.346;2023-02-15T15:55:16;16.65;;;11.15;;
9698;SDS011;10089;47.876;8.346;2023-02-15T15:57:45;13.77;;;10.60;;
9698;SDS011;10089;47.876;8.346;2023-02-15T16:03:16;17.38;;;11.75;;
9698;SDS011;10089;47.876;8.346;2023-02-15T16:05:47;15.07;;;11.07;;
9698;SDS011;10089;47.876;8.346;2023-02-15T16:08:32;17.52;;;11.60;;
9698;SDS011;10089;47.876;8.346;2023-02-15T16:10:58;13.50;;;10.18;;
9698;SDS011;10089;47.876;8.346;2023-02-15T16:13:27;16.75;;;10.27;;
9698;SDS011;10089;47.876;8.346;2023-02-15T16:15:55;15.38;;;10.23;;
9698;SDS011;10089;47.876;8.346;2023-02-15T16:18:23;14.88;;;10.85;;
9698;SDS011;10089;47.876;8.346;2023-02-15T16:21:01;15.75;;;11.13;;
9698;SDS011;10089;47.876;8.346;2023-02-15T16:23:43;13.75;;;10.00;;
9698;SDS011;10089;47.876;8.346;2023-02-15T16:26:43;15.52;;;11.35;;
9698;SDS011;10089;47.876;8.346;2023-02-15T16:29:27;15.80;;;10.98;;
9698;SDS011;10089;47.876;8.346;2023-02-15T16:31:59;15.07;;;10.93;;
9698;SDS011;10089;47.876;8.346;2023-02-15T16:34:30;18.23;;;11.52;;
9698;SDS011;10089;47.876;8.346;2023-02-15T16:40:00;15.27;;;11.18;;
9698;SDS011;10089;47.876;8.346;2023-02-15T16:42:26;14.27;;;10.35;;
9698;SDS011;10089;47.876;8.346;2023-02-15T16:45:04;16.35;;;12.02;;
9698;SDS011;10089;47.876;8.346;2023-02-15T16:47:36;19.48;;;11.73;;
9698;SDS011;10089;47.876;8.346;2023-02-15T16:50:06;19.52;;;13.82;;
9698;SDS011;10089;47.876;8.346;2023-02-15T16:52:45;24.60;;;14.20;;
9698;SDS011;10089;47.876;8.346;2023-02-15T16:55:19;22.13;;;15.23;;
9698;SDS011;10089;47.876;8.346;2023-02-15T16:57:47;25.40;;;15.93;;
9698;SDS011;10089;47.876;8.346;2023-02-15T17:00:21;26.52;;;16.33;;
9698;SDS011;10089;47.876;8.346;2023-02-15T17:03:06;23.80;;;13.98;;
9698;SDS011;10089;47.876;8.346;2023-02-15T17:05:45;20.88;;;13.30;;
9698;SDS011;10089;47.876;8.346;2023-02-15T17:10:41;21.40;;;14.60;;
9698;SDS011;10089;47.876;8.346;2023-02-15T17:15:38;23.80;;;15.13;;
9698;SDS011;10089;47.876;8.346;2023-02-15T17:18:22;17.98;;;11.45;;
9698;SDS011;10089;47.876;8.346;2023-02-15T17:20:50;16.55;;;11.18;;
9698;SDS011;10089;47.876;8.346;2023-02-15T17:25:55;15.65;;;11.57;;
9698;SDS011;10089;47.876;8.346;2023-02-15T17:28:22;19.83;;;13.70;;
9698;SDS011;10089;47.876;8.346;2023-02-15T17:30:53;19.58;;;12.63;;
9698;SDS011;10089;47.876;8.346;2023-02-15T17:36:05;15.35;;;10.93;;
9698;SDS011;10089;47.876;8.346;2023-02-15T17:38:34;18.58;;;13.63;;
9698;SDS011;10089;47.876;8.346;2023-02-15T17:41:01;20.63;;;15.50;;
9698;SDS011;10089;47.876;8.346;2023-02-15T17:43:27;20.92;;;13.82;;
9698;SDS011;10089;47.876;8.346;2023-02-15T17:45:52;24.38;;;16.58;;
9698;SDS011;10089;47.876;8.346;2023-02-15T17:48:28;22.55;;;16.15;;
9698;SDS011;10089;47.876;8.346;2023-02-15T17:50:59;38.08;;;20.20;;
9698;SDS011;10089;47.876;8.346;2023-02-15T17:53:26;35.15;;;19.25;;
9698;SDS011;10089;47.876;8.346;2023-02-15T17:55:52;38.25;;;21.58;;
9698;SDS011;10089;47.876;8.346;2023-02-15T17:58:18;38.05;;;22.60;;
9698;SDS011;10089;47.876;8.346;2023-02-15T18:00:45;32.58;;;18.88;;
9698;SDS011;10089;47.876;8.346;2023-02-15T18:03:50;28.90;;;15.13;;
9698;SDS011;10089;47.876;8.346;2023-02-15T18:06:37;24.02;;;15.73;;
9698;SDS011;10089;47.876;8.346;2023-02-15T18:09:23;32.88;;;20.77;;
9698;SDS011;10089;47.876;8.346;2023-02-15T18:14:51;29.38;;;16.60;;
9698;SDS011;10089;47.876;8.346;2023-02-15T18:17:18;28.83;;;15.98;;
9698;SDS011;10089;47.876;8.346;2023-02-15T18:19:51;35.08;;;20.55;;
9698;SDS011;10089;47.876;8.346;2023-02-15T18:22:18;41.10;;;21.02;;
9698;SDS011;10089;47.876;8.346;2023-02-15T18:24:45;29.55;;;16.65;;
9698;SDS011;10089;47.876;8.346;2023-02-15T18:27:12;28.10;;;16.23;;
9698;SDS011;10089;47.876;8.346;2023-02-15T18:29:39;164.20;;;59.60;;
9698;SDS011;10089;47.876;8.346;2023-02-15T18:32:06;87.97;;;36.40;;
9698;SDS011;10089;47.876;8.346;2023-02-15T18:34:35;23.50;;;12.30;;
9698;SDS011;10089;47.876;8.346;2023-02-15T18:37:03;20.48;;;11.20;;
9698;SDS011;10089;47.876;8.346;2023-02-15T18:39:49;20.77;;;12.93;;
9698;SDS011;10089;47.876;8.346;2023-02-15T18:42:28;29.60;;;15.80;;
9698;SDS011;10089;47.876;8.346;2023-02-15T18:44:57;27.60;;;16.88;;
9698;SDS011;10089;47.876;8.346;2023-02-15T18:47:24;24.70;;;16.30;;
9698;SDS011;10089;47.876;8.346;2023-02-15T18:49:51;26.55;;;15.55;;
9698;SDS011;10089;47.876;8.346;2023-02-15T18:52:21;19.40;;;12.70;;